SHMÚ vydal meteorologické výstrahy na Ground frost Display warnings

TAF

Aerodrome Forecast TAF

TAF description (Slovak)

27.09.2016 - 14:00 UTC

TAF LZSL 271400Z 2715/2724 21005KT 9999 SCT045
    BECMG 2717/2719 VRB02KT
    BECMG 2721/2723 2500 BR SCT002=
TAF LZPP 271400Z 2715/2724 17005KT CAVOK
    BECMG 2718/2720 04004KT=
TAF LZZI 271400Z 2715/2724 23005KT 9999 FEW040
    BECMG 2717/2719 VRB02KT
    BECMG 2720/2722 1800 BR SCT001=

27.09.2016 - 14:00 UTC

TAF LZSL 271400Z 2715/2724 21005KT 9999 SCT045
    BECMG 2717/2719 VRB02KT
    BECMG 2721/2723 2500 BR SCT002=
TAF LZPP 271400Z 2715/2724 17005KT CAVOK
    BECMG 2718/2720 04004KT=
TAF LZZI 271400Z 2715/2724 23005KT 9999 FEW040
    BECMG 2717/2719 VRB02KT
    BECMG 2720/2722 1800 BR SCT001=

27.09.2016 - 11:00 UTC

TAF LZSL 271100Z 2712/2721 21005KT 9999 SCT045
    BECMG 2717/2719 VRB02KT
    BECMG 2720/2721 3500 BR NSC=
TAF LZPP 271100Z 2712/2721 17005KT CAVOK
    BECMG 2718/2720 04004KT=
TAF LZZI 271100Z 2712/2721 23005KT 9999 FEW040
    BECMG 2717/2719 VRB02KT
    BECMG 2720/2721 2500 BR SCT001=

27.09.2016 - 11:00 UTC

TAF LZIB 271100Z 2712/2812 13005KT CAVOK
    BECMG 2800/2802 VRB02KT 4000 BR NSC
    PROB30 TEMPO 2802/2807 2000 BCFG SCT002
    BECMG 2807/2809 21005KT CAVOK=
TAF LZKZ 271100Z 2712/2812 04005KT CAVOK
    BECMG 2720/2722 VRB02KT
    BECMG 2801/2803 3500 BR SCT001
    BECMG 2807/2809 20005KT CAVOK=
TAF LZTT 271100Z 2712/2812 11005KT 9999 FEW050
    BECMG 2718/2720 27003KT
    PROB40 TEMPO 2723/2808 2500 BCFG SCT001
    BECMG 2808/2810 21006KT=

27.09.2016 - 11:00 UTC

TAF LZSL 271100Z 2712/2721 21005KT 9999 SCT045
    BECMG 2717/2719 VRB02KT
    BECMG 2720/2721 3500 BR NSC=
TAF LZPP 271100Z 2712/2721 17005KT CAVOK
    BECMG 2718/2720 04004KT=
TAF LZZI 271100Z 2712/2721 23005KT 9999 FEW040
    BECMG 2717/2719 VRB02KT
    BECMG 2720/2721 2500 BR SCT001=

27.09.2016 - 08:00 UTC

TAF COR LZSL 270816Z 2709/2718 VRB02KT 9999 SCT045
    BECMG 2709/2710 21005KT=
TAF COR LZZI 270816Z 2709/2718 06004KT 4000 BR SCT005
    BECMG 2709/2710 23006KT 9999 NSW FEW040=

27.09.2016 - 08:00 UTC

TAF LZSL 270800Z 2709/2718 VRB02KT 2500 BR BKN004
    BECMG 2709/2710 21005KT 9999 SCT045=
TAF LZPP 270800Z 2709/2718 03005KT CAVOK
    BECMG 2709/2710 15007KT=
TAF LZZI 270800Z 2709/2718 04004KT 3000 BR BKN005
    BECMG 2709/2710 23006KT 9999 FEW050=

27.09.2016 - 08:00 UTC

TAF LZSL 270800Z 2709/2718 VRB02KT 2500 BR BKN004
    BECMG 2709/2710 21005KT 9999 SCT045=
TAF LZPP 270800Z 2709/2718 03005KT CAVOK
    BECMG 2709/2710 15007KT=
TAF LZZI 270800Z 2709/2718 04004KT 3000 BR BKN005
    BECMG 2709/2710 23006KT 9999 FEW050=

27.09.2016 - 05:00 UTC

TAF LZSL 270500Z 2706/2715 VRB02KT 0100 FG OVC001
    BECMG 2706/2708 4000 BR BKN012
    BECMG 2708/2710 9999 FEW050=
TAF LZPP 270500Z 2706/2715 VRB02KT CAVOK
    TEMPO 2706/2708 4000 BR SCT003=
TAF LZZI 270500Z 2706/2715 VRB02KT 0100 BR OVC001
    BECMG 2706/2708 5000 BR BKN010
    BECMG 2708/2710 22004KT 9999 FEW050=

27.09.2016 - 05:00 UTC

TAF LZSL 270500Z 2706/2715 VRB02KT 0100 FG OVC001
    BECMG 2706/2708 4000 BR BKN012
    BECMG 2708/2710 9999 FEW050=
TAF LZPP 270500Z 2706/2715 VRB02KT CAVOK
    TEMPO 2706/2708 4000 BR SCT003=
TAF LZZI 270500Z 2706/2715 VRB02KT 0100 BR OVC001
    BECMG 2706/2708 5000 BR BKN010
    BECMG 2708/2710 22004KT 9999 FEW050=

27.09.2016 - 05:00 UTC

TAF LZIB 270500Z 2706/2806 06004KT CAVOK
    TEMPO 2706/2708 4000 BR SCT013
    BECMG 2710/2712 24004KT
    BECMG 2800/2802 VRB02KT 4000 BR NSC
    PROB30 TEMPO 2802/2806 2000 BCFG SCT003=
TAF LZKZ 270500Z 2706/2806 02005KT CAVOK
    BECMG 2708/2710 VRB02KT
    BECMG 2720/2722 03004KT=
TAF LZTT 270500Z 2706/2806 27004KT 9999 FEW050
    BECMG 2708/2710 10006KT
    BECMG 2718/2720 27003KT
    PROB30 TEMPO 2719/2806 3000 BCFG SCT004=

27.09.2016 - 02:00 UTC

TAF LZSL 270200Z 2703/2712 VRB02KT 4000 BR SCT003
    TEMPO 2703/2707 0200 FG BKN002
    BECMG 2707/2709 9999 FEW050=
TAF LZZI 270200Z 2703/2712 VRB02KT 4000 BR SCT004
    TEMPO 2703/2707 0200 FG OVC002
    BECMG 2707/2709 9999 FEW050=

27.09.2016 - 02:00 UTC

TAF LZSL 270200Z 2703/2712 VRB02KT 4000 BR SCT003
    TEMPO 2703/2707 0200 FG BKN002
    BECMG 2707/2709 9999 FEW050=
TAF LZZI 270200Z 2703/2712 VRB02KT 4000 BR SCT004
    TEMPO 2703/2707 0200 FG OVC002
    BECMG 2707/2709 9999 FEW050=

skok na menu ↑


skok na začiatok stránky ↑